createdAt,value
2022-09-28T00:01:21.312Z,4.75
2022-09-28T00:03:49.936Z,5.03
2022-09-28T00:06:19.653Z,4.82
2022-09-28T00:08:46.730Z,5.72
2022-09-28T00:11:15.623Z,4.13
2022-09-28T00:13:44.083Z,3.67
2022-09-28T00:16:14.216Z,3.35
2022-09-28T00:18:41.651Z,3.65
2022-09-28T00:21:18.752Z,4.13
2022-09-28T00:24:04.471Z,4.13
2022-09-28T00:26:33.401Z,4.00
2022-09-28T00:29:02.223Z,5.90
2022-09-28T00:31:34.357Z,5.63
2022-09-28T00:34:02.460Z,4.85
2022-09-28T00:36:31.096Z,5.35
2022-09-28T00:38:58.973Z,4.88
2022-09-28T00:41:27.991Z,5.10
2022-09-28T00:44:26.470Z,4.55
2022-09-28T00:46:55.869Z,4.47
2022-09-28T00:49:33.505Z,4.35
2022-09-28T00:52:01.737Z,4.50
2022-09-28T00:54:29.081Z,3.75
2022-09-28T00:56:56.326Z,3.88
2022-09-28T00:59:24.900Z,3.67
2022-09-28T01:01:51.602Z,3.88
2022-09-28T01:04:18.322Z,3.65
2022-09-28T01:06:46.911Z,4.20
2022-09-28T01:09:14.805Z,3.63
2022-09-28T01:11:42.497Z,3.67
2022-09-28T01:14:15.665Z,3.40
2022-09-28T01:16:45.082Z,5.03
2022-09-28T01:19:42.750Z,4.05
2022-09-28T01:22:39.936Z,3.78
2022-09-28T01:25:25.200Z,2.60
2022-09-28T01:28:00.129Z,3.75
2022-09-28T01:30:26.961Z,3.65
2022-09-28T01:33:11.060Z,3.67
2022-09-28T01:35:48.301Z,3.67
2022-09-28T01:38:41.034Z,3.60
2022-09-28T01:41:09.468Z,3.83
2022-09-28T01:43:40.324Z,3.60
2022-09-28T01:46:12.485Z,2.80
2022-09-28T01:48:51.316Z,2.83
2022-09-28T01:51:37.017Z,3.10
2022-09-28T01:54:17.802Z,3.33
2022-09-28T01:57:37.147Z,2.72
2022-09-28T02:00:13.136Z,2.92
2022-09-28T02:02:54.018Z,3.10
2022-09-28T02:05:26.642Z,3.30
2022-09-28T02:08:02.680Z,3.03
2022-09-28T02:10:41.550Z,2.70
2022-09-28T02:13:23.130Z,2.53
2022-09-28T02:15:54.408Z,3.08
2022-09-28T02:18:21.094Z,3.30
2022-09-28T02:20:56.911Z,3.10
2022-09-28T02:23:26.646Z,3.35
2022-09-28T02:26:01.096Z,3.70
2022-09-28T02:28:27.925Z,3.90
2022-09-28T02:30:55.427Z,3.65
2022-09-28T02:33:28.305Z,4.03
2022-09-28T02:35:55.845Z,3.85
2022-09-28T02:38:22.489Z,4.43
2022-09-28T02:41:09.224Z,3.58
2022-09-28T02:44:10.277Z,4.47
2022-09-28T02:46:56.431Z,3.38
2022-09-28T02:49:52.295Z,4.07
2022-09-28T02:55:09.632Z,4.57
2022-09-28T02:57:45.171Z,5.28
2022-09-28T03:00:20.786Z,4.03
2022-09-28T03:03:06.265Z,3.42
2022-09-28T03:08:24.177Z,3.63
2022-09-28T03:10:58.901Z,3.17
2022-09-28T03:13:27.105Z,3.28
2022-09-28T03:16:08.301Z,3.80
2022-09-28T03:18:35.099Z,3.45
2022-09-28T03:21:02.997Z,3.33
2022-09-28T03:23:29.619Z,3.90
2022-09-28T03:25:56.365Z,3.45
2022-09-28T03:28:23.335Z,4.18
2022-09-28T03:30:50.615Z,4.28
2022-09-28T03:33:17.329Z,3.30
2022-09-28T03:35:48.100Z,3.72
2022-09-28T03:38:15.043Z,3.70
2022-09-28T03:40:41.704Z,3.30
2022-09-28T03:43:08.621Z,3.42
2022-09-28T03:45:35.395Z,3.72
2022-09-28T03:48:02.091Z,3.80
2022-09-28T03:50:28.949Z,5.28
2022-09-28T03:52:55.944Z,5.47
2022-09-28T03:55:22.657Z,6.10
2022-09-28T03:57:56.169Z,5.72
2022-09-28T04:00:23.189Z,6.43
2022-09-28T04:02:49.875Z,6.78
2022-09-28T04:05:16.499Z,4.35
2022-09-28T04:07:43.361Z,4.50
2022-09-28T04:10:10.122Z,3.65
2022-09-28T04:12:36.790Z,3.55
2022-09-28T04:15:03.646Z,3.30
2022-09-28T04:17:30.301Z,4.43
2022-09-28T04:19:57.871Z,5.38
2022-09-28T04:22:24.867Z,3.38
2022-09-28T04:24:51.563Z,3.75
2022-09-28T04:27:50.392Z,4.65
2022-09-28T04:30:17.582Z,4.13
2022-09-28T04:32:47.024Z,4.18
2022-09-28T04:35:14.512Z,4.30
2022-09-28T04:37:41.545Z,5.90
2022-09-28T04:40:08.764Z,4.88
2022-09-28T04:42:36.491Z,4.50
2022-09-28T04:45:04.845Z,5.00
2022-09-28T04:47:31.495Z,7.63
2022-09-28T04:49:58.209Z,8.77
2022-09-28T04:52:26.744Z,8.57
2022-09-28T04:54:53.387Z,8.20
2022-09-28T04:57:20.069Z,5.40
2022-09-28T04:59:46.777Z,7.22
2022-09-28T05:02:15.126Z,4.88
2022-09-28T05:04:42.241Z,23.30
2022-09-28T05:07:09.384Z,76.65
2022-09-28T05:09:38.429Z,56.63
2022-09-28T05:12:05.404Z,35.90
2022-09-28T05:14:32.041Z,25.23
2022-09-28T05:16:59.098Z,25.08
2022-09-28T05:19:25.773Z,24.48
2022-09-28T05:21:52.563Z,27.23
2022-09-28T05:24:19.383Z,30.02
2022-09-28T05:26:46.052Z,32.45
2022-09-28T05:29:12.937Z,25.10
2022-09-28T05:31:39.680Z,19.17
2022-09-28T05:34:06.504Z,17.38
2022-09-28T05:36:33.257Z,24.45
2022-09-28T05:39:00.138Z,20.73
2022-09-28T05:41:26.880Z,14.07
2022-09-28T05:43:55.103Z,14.38
2022-09-28T05:46:23.762Z,9.82
2022-09-28T05:48:52.626Z,13.40
2022-09-28T05:51:19.441Z,9.55
2022-09-28T05:53:46.280Z,9.80
2022-09-28T05:56:13.006Z,9.38
2022-09-28T05:58:40.149Z,10.40
2022-09-28T06:01:06.940Z,7.97
2022-09-28T06:03:33.628Z,10.68
2022-09-28T06:06:02.491Z,11.90
2022-09-28T06:08:31.758Z,10.25
2022-09-28T06:11:02.586Z,9.75
2022-09-28T06:13:29.463Z,5.97
2022-09-28T06:15:56.221Z,12.60
2022-09-28T06:18:22.883Z,6.45
2022-09-28T06:20:49.625Z,5.22
2022-09-28T06:23:16.355Z,4.65
2022-09-28T06:25:43.144Z,4.60
2022-09-28T06:28:12.146Z,5.15
2022-09-28T06:30:39.950Z,5.32
2022-09-28T06:33:09.974Z,3.80
2022-09-28T06:35:36.681Z,4.57
2022-09-28T06:38:03.509Z,4.50
2022-09-28T06:40:31.124Z,4.55
2022-09-28T06:43:01.963Z,3.80
2022-09-28T06:45:30.185Z,3.30
2022-09-28T06:48:00.791Z,3.28
2022-09-28T06:50:32.338Z,2.65
2022-09-28T06:52:59.965Z,3.20
2022-09-28T06:55:27.142Z,3.30
2022-09-28T06:58:02.312Z,3.25
2022-09-28T07:00:32.997Z,2.75
2022-09-28T07:03:01.796Z,3.70
2022-09-28T07:05:29.627Z,4.13
2022-09-28T07:07:56.890Z,3.53
2022-09-28T07:10:25.567Z,3.70
2022-09-28T07:12:52.530Z,3.25
2022-09-28T07:15:19.779Z,3.75
2022-09-28T07:17:58.971Z,3.78
2022-09-28T07:20:28.973Z,3.60
2022-09-28T07:22:59.236Z,3.53
2022-09-28T07:25:31.626Z,4.45
2022-09-28T07:27:59.801Z,3.75
2022-09-28T07:30:28.239Z,3.22
2022-09-28T07:32:55.716Z,2.47
2022-09-28T07:35:22.782Z,2.17
2022-09-28T07:37:49.478Z,2.88
2022-09-28T07:40:34.988Z,3.30
2022-09-28T07:43:06.471Z,3.35
2022-09-28T07:45:36.825Z,1.88
2022-09-28T07:48:03.693Z,2.33
2022-09-28T07:50:31.513Z,1.55
2022-09-28T07:52:58.743Z,1.65
2022-09-28T07:55:28.189Z,1.40
2022-09-28T07:58:01.812Z,1.30
2022-09-28T08:00:33.972Z,1.20
2022-09-28T08:03:04.091Z,0.93
2022-09-28T08:05:32.122Z,1.55
2022-09-28T08:07:59.770Z,0.75
2022-09-28T08:10:26.721Z,0.93
2022-09-28T08:13:00.694Z,0.90
2022-09-28T08:15:37.029Z,0.80
2022-09-28T08:18:07.323Z,0.98
2022-09-28T08:20:52.727Z,0.90
2022-09-28T08:23:20.431Z,0.98
2022-09-28T08:25:51.429Z,1.25
2022-09-28T08:28:18.488Z,1.08
2022-09-28T08:30:46.269Z,0.90
2022-09-28T08:33:13.956Z,0.98
2022-09-28T08:35:43.937Z,1.10
2022-09-28T08:38:10.973Z,0.93
2022-09-28T08:40:57.887Z,1.08
2022-09-28T08:43:45.282Z,1.10
2022-09-28T08:46:15.146Z,1.00
2022-09-28T08:49:25.669Z,1.23
2022-09-28T08:51:55.668Z,1.13
2022-09-28T08:54:45.993Z,0.60
2022-09-28T08:57:19.091Z,0.90
2022-09-28T08:59:49.878Z,0.85
2022-09-28T09:02:25.553Z,0.85
2022-09-28T09:04:52.846Z,1.20
2022-09-28T09:07:26.049Z,1.10
2022-09-28T09:10:04.752Z,1.27
2022-09-28T09:13:00.833Z,1.20
2022-09-28T09:16:22.015Z,1.27
2022-09-28T09:19:12.794Z,1.15
2022-09-28T09:21:52.702Z,1.00
2022-09-28T09:24:27.441Z,0.90
2022-09-28T09:27:12.926Z,1.00
2022-09-28T09:30:06.512Z,1.00
2022-09-28T09:33:08.489Z,1.00
2022-09-28T09:35:50.245Z,0.90
2022-09-28T09:38:40.780Z,0.93
2022-09-28T09:41:36.450Z,1.27
2022-09-28T09:46:50.097Z,1.00
2022-09-28T09:51:51.775Z,1.05
2022-09-28T09:54:34.093Z,1.15
2022-09-28T09:57:13.362Z,1.10
2022-09-28T09:59:42.146Z,1.60
2022-09-28T10:02:32.960Z,1.00
2022-09-28T10:05:16.125Z,0.90
2022-09-28T10:07:51.277Z,1.23
2022-09-28T10:10:26.734Z,1.02
2022-09-28T10:12:54.241Z,0.90
2022-09-28T10:15:25.680Z,1.15
2022-09-28T10:17:54.676Z,0.98
2022-09-28T10:20:23.101Z,1.17
2022-09-28T10:22:56.270Z,1.00
2022-09-28T10:25:23.946Z,1.40
2022-09-28T10:27:52.586Z,1.00
2022-09-28T10:30:25.176Z,0.85
2022-09-28T10:32:55.539Z,1.30
2022-09-28T10:35:29.262Z,0.95
2022-09-28T10:37:59.297Z,1.00
2022-09-28T10:40:43.572Z,1.05
2022-09-28T10:43:24.970Z,0.95
2022-09-28T10:46:05.578Z,1.38
2022-09-28T10:48:39.340Z,1.10
2022-09-28T10:51:08.195Z,0.90
2022-09-28T10:53:37.210Z,0.90
2022-09-28T10:56:05.342Z,1.08
2022-09-28T10:58:43.096Z,0.80
2022-09-28T11:01:22.299Z,1.33
2022-09-28T11:04:01.709Z,1.00
2022-09-28T11:06:31.732Z,1.08
2022-09-28T11:09:02.704Z,1.10
2022-09-28T11:11:29.770Z,1.13
2022-09-28T11:14:03.630Z,0.98
2022-09-28T11:16:32.873Z,1.15
2022-09-28T11:19:25.501Z,0.73
2022-09-28T11:21:52.419Z,1.25
2022-09-28T11:24:25.656Z,1.10
2022-09-28T11:27:00.178Z,1.17
2022-09-28T11:29:42.180Z,1.33
2022-09-28T11:32:15.493Z,1.00
2022-09-28T11:34:59.241Z,0.90
2022-09-28T11:37:57.045Z,1.00
2022-09-28T11:40:33.269Z,1.00
2022-09-28T11:43:24.756Z,1.02
2022-09-28T11:45:57.542Z,1.00
2022-09-28T11:48:29.031Z,1.00
2022-09-28T11:51:04.338Z,0.88
2022-09-28T11:53:38.908Z,0.80
2022-09-28T11:56:12.094Z,0.82
2022-09-28T11:58:48.231Z,1.00
2022-09-28T12:01:35.825Z,0.80
2022-09-28T12:04:18.637Z,0.90
2022-09-28T12:06:58.425Z,0.85
2022-09-28T12:09:39.610Z,0.90
2022-09-28T12:12:18.590Z,1.05
2022-09-28T12:14:47.025Z,0.90
2022-09-28T12:17:30.874Z,1.30
2022-09-28T12:20:09.934Z,0.80
2022-09-28T12:22:46.045Z,1.45
2022-09-28T12:25:21.245Z,0.90
2022-09-28T12:28:00.637Z,0.70
2022-09-28T12:30:34.499Z,1.17
2022-09-28T12:33:07.006Z,0.88
2022-09-28T12:36:07.446Z,0.90
2022-09-28T12:39:08.357Z,0.57
2022-09-28T12:41:53.623Z,0.90
2022-09-28T12:44:37.699Z,0.70
2022-09-28T12:47:29.336Z,0.98
2022-09-28T12:53:03.888Z,0.80
2022-09-28T12:55:43.806Z,0.95
2022-09-28T12:58:25.599Z,0.90
2022-09-28T13:01:38.909Z,1.05
2022-09-28T13:04:23.722Z,1.00
2022-09-28T13:07:01.388Z,1.10
2022-09-28T13:09:37.289Z,0.88
2022-09-28T13:12:39.106Z,0.70
2022-09-28T13:15:24.858Z,1.00
2022-09-28T13:18:01.887Z,0.77
2022-09-28T13:21:04.350Z,0.70
2022-09-28T13:23:37.997Z,0.93
2022-09-28T13:26:05.078Z,0.90
2022-09-28T13:28:33.994Z,0.80
2022-09-28T13:31:02.350Z,0.90
2022-09-28T13:33:41.115Z,0.90
2022-09-28T13:36:26.289Z,0.98
2022-09-28T13:38:54.181Z,0.80
2022-09-28T13:41:56.113Z,0.90
2022-09-28T13:44:41.712Z,1.00
2022-09-28T13:47:38.661Z,1.00
2022-09-28T13:50:29.505Z,1.00
2022-09-28T13:53:02.832Z,0.82
2022-09-28T13:55:35.427Z,1.20
2022-09-28T13:58:26.931Z,1.00
2022-09-28T14:01:21.308Z,1.10
2022-09-28T14:04:21.994Z,0.90
2022-09-28T14:06:55.491Z,0.88
2022-09-28T14:09:25.799Z,1.10
2022-09-28T14:12:01.218Z,0.90
2022-09-28T14:14:29.492Z,0.90
2022-09-28T14:17:19.433Z,0.82
2022-09-28T14:19:53.197Z,1.15
2022-09-28T14:22:19.830Z,0.90
2022-09-28T14:25:15.275Z,0.90
2022-09-28T14:28:03.351Z,1.15
2022-09-28T14:30:42.137Z,1.10
2022-09-28T14:33:21.034Z,0.90
2022-09-28T14:36:05.201Z,1.00
2022-09-28T14:39:05.536Z,0.85
2022-09-28T14:41:35.199Z,0.80
2022-09-28T14:44:03.868Z,1.05
2022-09-28T14:46:35.745Z,1.25
2022-09-28T14:49:03.485Z,1.02
2022-09-28T14:51:30.480Z,1.20
2022-09-28T14:54:03.025Z,1.48
2022-09-28T14:56:33.514Z,1.23
2022-09-28T14:59:00.795Z,1.35
2022-09-28T15:01:27.969Z,1.20
2022-09-28T15:03:59.263Z,1.08
2022-09-28T15:06:29.033Z,1.00
2022-09-28T15:08:55.775Z,1.77
2022-09-28T15:11:25.651Z,1.20
2022-09-28T15:14:06.346Z,1.20
2022-09-28T15:16:33.545Z,1.98
2022-09-28T15:19:29.197Z,1.80
2022-09-28T15:21:55.923Z,1.80
2022-09-28T15:24:28.662Z,1.20
2022-09-28T15:26:56.834Z,2.08
2022-09-28T15:29:25.918Z,1.60
2022-09-28T15:31:54.668Z,1.63
2022-09-28T15:34:54.867Z,1.70
2022-09-28T15:37:28.802Z,2.00
2022-09-28T15:39:58.150Z,2.50
2022-09-28T15:42:25.897Z,1.42
2022-09-28T15:45:07.811Z,1.85
2022-09-28T15:47:35.489Z,2.40
2022-09-28T15:50:19.825Z,2.60
2022-09-28T15:52:55.299Z,2.95
2022-09-28T15:55:44.024Z,3.22
2022-09-28T15:58:21.000Z,2.85
2022-09-28T16:00:49.769Z,3.95
2022-09-28T16:03:28.605Z,2.88
2022-09-28T16:05:58.316Z,3.08
2022-09-28T16:08:33.071Z,3.35
2022-09-28T16:11:31.859Z,5.57
2022-09-28T16:14:06.840Z,8.13
2022-09-28T16:19:24.169Z,11.68
2022-09-28T16:21:56.207Z,11.07
2022-09-28T16:24:31.592Z,38.80
2022-09-28T16:27:04.558Z,11.98
2022-09-28T16:29:41.335Z,9.38
2022-09-28T16:32:26.077Z,9.27
2022-09-28T16:35:13.456Z,10.45
2022-09-28T16:37:43.934Z,10.15
2022-09-28T16:40:12.148Z,8.55
2022-09-28T16:42:45.477Z,10.13
2022-09-28T16:45:21.545Z,12.70
2022-09-28T16:47:51.969Z,24.15
2022-09-28T16:50:20.983Z,16.90
2022-09-28T16:53:09.223Z,12.70
2022-09-28T16:55:41.448Z,7.93
2022-09-28T16:58:08.609Z,9.27
2022-09-28T17:00:35.528Z,9.32
2022-09-28T17:03:04.260Z,11.75
2022-09-28T17:05:30.943Z,15.05
2022-09-28T17:08:03.280Z,14.55
2022-09-28T17:10:56.084Z,26.85
2022-09-28T17:13:31.570Z,10.15
2022-09-28T17:16:09.003Z,5.65
2022-09-28T17:18:39.140Z,7.68
2022-09-28T17:21:18.521Z,9.80
2022-09-28T17:23:47.444Z,9.35
2022-09-28T17:26:34.558Z,7.60
2022-09-28T17:29:06.808Z,5.32
2022-09-28T17:31:33.431Z,4.72
2022-09-28T17:34:00.106Z,7.25
2022-09-28T17:36:27.041Z,16.80
2022-09-28T17:38:53.657Z,8.20
2022-09-28T17:41:21.230Z,13.95
2022-09-28T17:43:48.812Z,6.68
2022-09-28T17:46:19.147Z,7.43
2022-09-28T17:48:47.499Z,6.72
2022-09-28T17:51:15.051Z,6.03
2022-09-28T17:53:41.767Z,6.65
2022-09-28T17:56:09.793Z,6.53
2022-09-28T17:58:36.740Z,5.70
2022-09-28T18:01:03.471Z,4.97
2022-09-28T18:03:30.205Z,6.57
2022-09-28T18:06:06.605Z,4.50
2022-09-28T18:08:34.075Z,5.85
2022-09-28T18:11:03.934Z,6.95
2022-09-28T18:13:30.667Z,7.60
2022-09-28T18:15:57.487Z,8.93
2022-09-28T18:18:25.198Z,7.53
2022-09-28T18:20:52.400Z,5.22
2022-09-28T18:23:19.156Z,6.10
2022-09-28T18:25:46.758Z,5.78
2022-09-28T18:28:14.087Z,5.78
2022-09-28T18:30:45.399Z,6.72
2022-09-28T18:33:13.988Z,7.95
2022-09-28T18:35:41.427Z,5.50
2022-09-28T18:38:08.269Z,6.18
2022-09-28T18:40:36.011Z,7.70
2022-09-28T18:43:03.699Z,6.30
2022-09-28T18:45:30.481Z,6.95
2022-09-28T18:47:58.015Z,6.50
2022-09-28T18:50:24.657Z,7.32
2022-09-28T18:52:51.373Z,14.15
2022-09-28T18:55:18.266Z,9.45
2022-09-28T18:57:46.416Z,9.13
2022-09-28T19:00:14.781Z,10.15
2022-09-28T19:02:41.546Z,11.10
2022-09-28T19:05:08.403Z,12.95
2022-09-28T19:07:35.224Z,12.07
2022-09-28T19:10:01.946Z,12.35
2022-09-28T19:12:28.572Z,14.43
2022-09-28T19:14:55.265Z,16.10
2022-09-28T19:17:21.921Z,16.20
2022-09-28T19:19:48.583Z,9.20
2022-09-28T19:22:15.315Z,7.78
2022-09-28T19:24:42.059Z,6.30
2022-09-28T19:27:08.734Z,6.47
2022-09-28T19:29:35.348Z,5.35
2022-09-28T19:32:02.351Z,6.10
2022-09-28T19:34:30.206Z,6.68
2022-09-28T19:36:57.479Z,6.30
2022-09-28T19:39:24.147Z,6.55
2022-09-28T19:41:51.535Z,13.93
2022-09-28T19:44:29.846Z,6.30
2022-09-28T19:47:08.096Z,7.88
2022-09-28T19:49:37.168Z,7.82
2022-09-28T19:52:15.877Z,8.73
2022-09-28T19:54:56.643Z,8.07
2022-09-28T19:57:32.722Z,9.35
2022-09-28T20:00:03.098Z,12.48
2022-09-28T20:02:30.941Z,10.98
2022-09-28T20:04:57.672Z,9.10
2022-09-28T20:07:24.449Z,8.63
2022-09-28T20:09:51.760Z,8.85
2022-09-28T20:12:18.429Z,7.68
2022-09-28T20:14:45.106Z,8.98
2022-09-28T20:17:11.990Z,7.90
2022-09-28T20:19:39.179Z,8.27
2022-09-28T20:22:05.986Z,9.20
2022-09-28T20:24:33.001Z,8.70
2022-09-28T20:27:01.456Z,9.15
2022-09-28T20:29:28.711Z,9.02
2022-09-28T20:31:55.331Z,9.30
2022-09-28T20:34:22.022Z,10.43
2022-09-28T20:36:48.702Z,8.63
2022-09-28T20:39:15.610Z,8.90
2022-09-28T20:41:42.443Z,9.13
2022-09-28T20:44:10.005Z,9.77
2022-09-28T20:46:37.457Z,9.40
2022-09-28T20:49:05.267Z,9.45
2022-09-28T20:51:32.201Z,8.30
2022-09-28T20:53:59.807Z,9.02
2022-09-28T20:56:27.645Z,10.93
2022-09-28T20:58:55.126Z,6.57
2022-09-28T21:01:27.438Z,5.60
2022-09-28T21:03:59.127Z,6.25
2022-09-28T21:06:37.869Z,4.97
2022-09-28T21:09:06.377Z,5.15
2022-09-28T21:11:35.618Z,5.70
2022-09-28T21:14:06.456Z,6.10
2022-09-28T21:16:34.893Z,5.05
2022-09-28T21:19:03.978Z,5.80
2022-09-28T21:21:30.964Z,6.10
2022-09-28T21:23:58.749Z,5.65
2022-09-28T21:26:29.711Z,4.70
2022-09-28T21:29:07.709Z,5.10
2022-09-28T21:31:40.221Z,5.53
2022-09-28T21:34:13.359Z,4.70
2022-09-28T21:36:43.245Z,4.72
2022-09-28T21:39:10.599Z,4.80
2022-09-28T21:41:37.826Z,4.93
2022-09-28T21:44:05.147Z,5.10
2022-09-28T21:46:34.430Z,5.43
2022-09-28T21:49:02.839Z,5.32
2022-09-28T21:51:30.059Z,5.43
2022-09-28T21:53:57.480Z,5.47
2022-09-28T21:56:24.279Z,7.50
2022-09-28T21:58:51.200Z,7.18
2022-09-28T22:01:22.027Z,6.78
2022-09-28T22:03:51.140Z,6.28
2022-09-28T22:06:23.116Z,6.18
2022-09-28T22:08:50.444Z,5.75
2022-09-28T22:11:22.659Z,5.78
2022-09-28T22:13:52.258Z,5.43
2022-09-28T22:16:23.047Z,5.90
2022-09-28T22:18:50.401Z,5.20
2022-09-28T22:21:37.363Z,6.32
2022-09-28T22:24:07.096Z,5.43
2022-09-28T22:26:36.843Z,5.43
2022-09-28T22:29:06.484Z,5.28
2022-09-28T22:31:35.746Z,5.47
2022-09-28T22:34:03.136Z,4.50
2022-09-28T22:36:30.630Z,4.15
2022-09-28T22:38:58.483Z,4.43
2022-09-28T22:41:25.301Z,4.80
2022-09-28T22:43:53.571Z,4.25
2022-09-28T22:46:22.964Z,3.40
2022-09-28T22:48:52.821Z,4.63
2022-09-28T22:51:20.539Z,4.65
2022-09-28T22:53:47.441Z,4.90
2022-09-28T22:56:18.698Z,4.57
2022-09-28T22:58:46.631Z,3.95
2022-09-28T23:01:22.570Z,4.00
2022-09-28T23:03:50.875Z,3.50
2022-09-28T23:06:19.730Z,3.58
2022-09-28T23:08:47.483Z,3.35
2022-09-28T23:11:15.259Z,3.95
2022-09-28T23:13:42.021Z,4.07
2022-09-28T23:16:11.611Z,4.10
2022-09-28T23:18:42.917Z,3.17
2022-09-28T23:21:15.472Z,3.80
2022-09-28T23:23:43.608Z,3.55
2022-09-28T23:26:13.169Z,3.85
2022-09-28T23:28:40.211Z,3.70
2022-09-28T23:31:16.546Z,3.53
2022-09-28T23:33:43.818Z,3.80
2022-09-28T23:36:10.953Z,4.10
2022-09-28T23:38:38.050Z,3.55
2022-09-28T23:41:05.549Z,3.72
2022-09-28T23:43:32.753Z,4.13
2022-09-28T23:45:59.606Z,6.97
2022-09-28T23:48:26.498Z,5.55
2022-09-28T23:50:53.167Z,6.03
2022-09-28T23:53:19.950Z,6.18
2022-09-28T23:55:46.785Z,6.13
2022-09-28T23:58:13.631Z,5.20
